createdAt,value
2017-05-17T00:00:00.451Z,23.51
2017-05-17T00:00:26.574Z,23.46
2017-05-17T00:00:52.709Z,23.5
2017-05-17T00:01:18.805Z,23.56
2017-05-17T00:01:44.924Z,23.55
2017-05-17T00:02:11.034Z,23.59
2017-05-17T00:02:37.187Z,23.48
2017-05-17T00:03:03.302Z,23.46
2017-05-17T00:03:29.462Z,23.4
2017-05-17T00:03:55.591Z,23.5
2017-05-17T00:04:21.682Z,23.5
2017-05-17T00:04:47.786Z,23.51
2017-05-17T00:05:13.897Z,23.43
2017-05-17T00:05:39.984Z,23.36
2017-05-17T00:06:06.086Z,23.47
2017-05-17T00:06:32.196Z,23.46
2017-05-17T00:06:58.295Z,23.41
2017-05-17T00:07:24.409Z,23.43
2017-05-17T00:07:50.506Z,23.4
2017-05-17T00:08:16.655Z,23.28
2017-05-17T00:08:42.761Z,23.41
2017-05-17T00:09:08.874Z,23.37
2017-05-17T00:09:35.000Z,23.34
2017-05-17T00:10:01.112Z,23.32
2017-05-17T00:10:27.232Z,23.32
2017-05-17T00:10:53.354Z,23.32
2017-05-17T00:11:19.463Z,23.24
2017-05-17T00:11:45.558Z,23.4
2017-05-17T00:12:11.677Z,23.36
2017-05-17T00:12:37.812Z,23.31
2017-05-17T00:13:03.962Z,23.39
2017-05-17T00:13:30.091Z,23.46
2017-05-17T00:13:56.236Z,23.47
2017-05-17T00:14:22.384Z,23.43
2017-05-17T00:14:48.519Z,23.31
2017-05-17T00:15:14.640Z,23.44
2017-05-17T00:15:40.733Z,23.41
2017-05-17T00:16:06.871Z,23.4
2017-05-17T00:16:32.971Z,23.32
2017-05-17T00:16:59.089Z,23.27
2017-05-17T00:17:25.248Z,23.25
2017-05-17T00:17:51.379Z,23.27
2017-05-17T00:18:17.468Z,23.25
2017-05-17T00:18:43.648Z,23.17
2017-05-17T00:19:09.764Z,23.17
2017-05-17T00:19:35.903Z,23.15
2017-05-17T00:20:02.057Z,23.23
2017-05-17T00:20:28.149Z,23.2
2017-05-17T00:20:54.285Z,23.23
2017-05-17T00:21:20.385Z,23.2
2017-05-17T00:21:46.477Z,23.18
2017-05-17T00:22:12.581Z,23.2
2017-05-17T00:22:38.720Z,23.23
2017-05-17T00:23:04.855Z,23.18
2017-05-17T00:23:30.977Z,23.2
2017-05-17T00:23:57.089Z,23.2
2017-05-17T00:24:23.203Z,23.2
2017-05-17T00:24:49.326Z,23.15
2017-05-17T00:25:15.461Z,23.18
2017-05-17T00:25:41.544Z,23.21
2017-05-17T00:26:07.638Z,23.27
2017-05-17T00:26:33.751Z,23.23
2017-05-17T00:26:59.847Z,23.21
2017-05-17T00:27:25.965Z,23.25
2017-05-17T00:27:52.101Z,23.21
2017-05-17T00:28:18.255Z,23.23
2017-05-17T00:28:44.372Z,23.17
2017-05-17T00:29:10.529Z,23.18
2017-05-17T00:29:36.666Z,23.1
2017-05-17T00:30:02.809Z,23.03
2017-05-17T00:30:28.908Z,23.08
2017-05-17T00:30:54.998Z,23.05
2017-05-17T00:31:21.105Z,22.96
2017-05-17T00:31:47.207Z,23.03
2017-05-17T00:32:13.297Z,23.03
2017-05-17T00:32:39.405Z,23.02
2017-05-17T00:33:05.539Z,23
2017-05-17T00:33:31.628Z,23.08
2017-05-17T00:33:57.758Z,23.05
2017-05-17T00:34:23.948Z,23
2017-05-17T00:34:50.039Z,23.06
2017-05-17T00:35:16.161Z,23
2017-05-17T00:35:42.289Z,23.02
2017-05-17T00:36:08.415Z,23
2017-05-17T00:36:34.523Z,23.05
2017-05-17T00:37:00.632Z,23.13
2017-05-17T00:37:26.759Z,23.1
2017-05-17T00:37:52.894Z,23.12
2017-05-17T00:38:19.014Z,23.06
2017-05-17T00:38:45.139Z,23.03
2017-05-17T00:39:11.276Z,23.02
2017-05-17T00:39:37.423Z,23.08
2017-05-17T00:40:03.541Z,23.06
2017-05-17T00:40:29.677Z,22.99
2017-05-17T00:40:55.802Z,23.03
2017-05-17T00:41:21.907Z,23.06
2017-05-17T00:41:48.000Z,23.08
2017-05-17T00:42:14.122Z,22.9
2017-05-17T00:42:40.229Z,23.02
2017-05-17T00:43:06.352Z,22.99
2017-05-17T00:43:32.467Z,22.91
2017-05-17T00:43:58.606Z,22.93
2017-05-17T00:44:24.707Z,22.91
2017-05-17T00:44:50.801Z,22.88
2017-05-17T00:45:16.935Z,22.9
2017-05-17T00:45:43.091Z,22.84
2017-05-17T00:46:09.231Z,22.81
2017-05-17T00:46:35.335Z,22.94
2017-05-17T00:47:01.457Z,22.85
2017-05-17T00:47:27.565Z,22.94
2017-05-17T00:47:53.664Z,22.93
2017-05-17T00:48:19.808Z,22.88
2017-05-17T00:48:45.916Z,23
2017-05-17T00:49:12.072Z,23.02
2017-05-17T00:49:38.189Z,22.98
2017-05-17T00:50:04.347Z,23.1
2017-05-17T00:50:30.457Z,23.05
2017-05-17T00:50:56.545Z,23.05
2017-05-17T00:51:22.648Z,23.08
2017-05-17T00:51:48.756Z,22.98
2017-05-17T00:52:14.848Z,23.05
2017-05-17T00:52:40.954Z,23.02
2017-05-17T00:53:07.071Z,23.02
2017-05-17T00:53:33.205Z,23.02
2017-05-17T00:53:59.312Z,22.96
2017-05-17T00:54:25.451Z,23.02
2017-05-17T00:54:51.580Z,23.02
2017-05-17T00:55:17.714Z,22.94
2017-05-17T00:55:43.831Z,22.93
2017-05-17T00:56:09.978Z,22.88
2017-05-17T00:56:36.084Z,22.93
2017-05-17T00:57:02.206Z,22.88
2017-05-17T00:57:28.348Z,22.98
2017-05-17T00:57:54.561Z,22.91
2017-05-17T00:58:20.688Z,22.9
2017-05-17T00:58:46.824Z,22.91
2017-05-17T00:59:12.944Z,22.9
2017-05-17T00:59:39.043Z,22.91
2017-05-17T01:00:05.177Z,22.93
2017-05-17T01:00:31.298Z,22.94
2017-05-17T01:00:57.388Z,22.93
2017-05-17T01:01:23.526Z,22.94
2017-05-17T01:01:49.619Z,22.94
2017-05-17T01:02:15.737Z,22.88
2017-05-17T01:02:41.872Z,22.91
2017-05-17T01:03:08.002Z,22.9
2017-05-17T01:03:34.103Z,22.84
2017-05-17T01:04:00.275Z,22.87
2017-05-17T01:04:26.391Z,22.88
2017-05-17T01:04:52.530Z,22.91
2017-05-17T01:05:18.629Z,22.9
2017-05-17T01:05:44.721Z,22.93
2017-05-17T01:06:10.853Z,22.93
2017-05-17T01:06:36.954Z,22.91
2017-05-17T01:07:03.045Z,22.9
2017-05-17T01:07:29.176Z,22.91
2017-05-17T01:07:55.282Z,22.88
2017-05-17T01:08:21.370Z,22.96
2017-05-17T01:08:47.502Z,22.93
2017-05-17T01:09:13.666Z,22.9
2017-05-17T01:09:39.807Z,22.93
2017-05-17T01:10:05.906Z,22.98
2017-05-17T01:10:32.013Z,22.91
2017-05-17T01:10:58.108Z,22.94
2017-05-17T01:11:24.205Z,22.93
2017-05-17T01:11:50.336Z,22.91
2017-05-17T01:12:16.434Z,22.83
2017-05-17T01:12:42.525Z,22.88
2017-05-17T01:13:08.633Z,22.72
2017-05-17T01:13:34.733Z,22.87
2017-05-17T01:14:00.876Z,22.85
2017-05-17T01:14:26.982Z,22.85
2017-05-17T01:14:53.151Z,22.8
2017-05-17T01:15:19.315Z,22.84
2017-05-17T01:15:45.414Z,22.83
2017-05-17T01:16:11.506Z,22.81
2017-05-17T01:16:37.613Z,22.7
2017-05-17T01:17:03.741Z,22.76
2017-05-17T01:17:29.860Z,22.72
2017-05-17T01:17:56.013Z,22.68
2017-05-17T01:18:22.149Z,22.68
2017-05-17T01:18:48.266Z,22.68
2017-05-17T01:19:14.392Z,22.68
2017-05-17T01:19:40.555Z,22.68
2017-05-17T01:20:06.641Z,22.69
2017-05-17T01:20:32.743Z,22.65
2017-05-17T01:20:58.890Z,22.65
2017-05-17T01:21:25.015Z,22.66
2017-05-17T01:21:51.148Z,22.66
2017-05-17T01:22:17.263Z,22.69
2017-05-17T01:22:43.390Z,22.66
2017-05-17T01:23:09.525Z,22.66
2017-05-17T01:23:35.617Z,22.63
2017-05-17T01:24:01.741Z,22.69
2017-05-17T01:24:27.876Z,22.69
2017-05-17T01:24:53.971Z,22.62
2017-05-17T01:25:20.089Z,22.59
2017-05-17T01:25:46.195Z,22.57
2017-05-17T01:26:12.322Z,22.55
2017-05-17T01:26:38.456Z,22.59
2017-05-17T01:27:04.549Z,22.63
2017-05-17T01:27:30.672Z,22.66
2017-05-17T01:27:56.835Z,22.65
2017-05-17T01:28:22.932Z,22.53
2017-05-17T01:28:49.074Z,22.55
2017-05-17T01:29:15.209Z,22.59
2017-05-17T01:29:41.334Z,22.59
2017-05-17T01:30:07.475Z,22.51
2017-05-17T01:30:33.606Z,22.54
2017-05-17T01:30:59.708Z,22.54
2017-05-17T01:31:25.810Z,22.57
2017-05-17T01:31:51.908Z,22.51
2017-05-17T01:32:18.020Z,22.57
2017-05-17T01:32:44.161Z,22.65
2017-05-17T01:33:10.368Z,22.59
2017-05-17T01:33:36.509Z,22.48
2017-05-17T01:34:02.646Z,22.55
2017-05-17T01:34:28.774Z,22.53
2017-05-17T01:34:54.890Z,22.47
2017-05-17T01:35:21.044Z,22.48
2017-05-17T01:35:47.182Z,22.55
2017-05-17T01:36:13.270Z,22.5
2017-05-17T01:36:39.372Z,22.53
2017-05-17T01:37:05.496Z,22.51
2017-05-17T01:37:31.604Z,22.53
2017-05-17T01:37:57.732Z,22.54
2017-05-17T01:38:23.897Z,22.53
2017-05-17T01:38:50.002Z,22.59
2017-05-17T01:39:16.110Z,22.51
2017-05-17T01:39:42.223Z,22.51
2017-05-17T01:40:08.371Z,22.53
2017-05-17T01:40:34.509Z,22.54
2017-05-17T01:41:00.630Z,22.48
2017-05-17T01:41:26.729Z,22.48
2017-05-17T01:41:52.892Z,22.55
2017-05-17T01:42:18.987Z,22.48
2017-05-17T01:42:45.149Z,22.55
2017-05-17T01:43:11.261Z,22.55
2017-05-17T01:43:37.387Z,22.54
2017-05-17T01:44:03.522Z,22.53
2017-05-17T01:44:29.636Z,22.55
2017-05-17T01:44:55.734Z,22.63
2017-05-17T01:45:21.894Z,22.63
2017-05-17T01:45:48.039Z,22.55
2017-05-17T01:46:14.131Z,22.62
2017-05-17T01:46:40.241Z,22.65
2017-05-17T01:47:06.341Z,22.63
2017-05-17T01:47:32.433Z,22.63
2017-05-17T01:47:58.541Z,22.66
2017-05-17T01:48:24.638Z,22.59
2017-05-17T01:48:50.801Z,22.51
2017-05-17T01:49:16.924Z,22.54
2017-05-17T01:49:43.040Z,22.62
2017-05-17T01:50:09.176Z,22.63
2017-05-17T01:50:35.276Z,22.65
2017-05-17T01:51:01.414Z,22.62
2017-05-17T01:51:27.511Z,22.63
2017-05-17T01:51:53.639Z,22.55
2017-05-17T01:52:19.757Z,22.59
2017-05-17T01:52:45.885Z,22.53
2017-05-17T01:53:11.993Z,22.53
2017-05-17T01:53:38.128Z,22.5
2017-05-17T01:54:04.228Z,22.6
2017-05-17T01:54:30.333Z,22.54
2017-05-17T01:54:56.449Z,22.55
2017-05-17T01:55:22.549Z,22.62
2017-05-17T01:55:48.656Z,22.6
2017-05-17T01:56:14.776Z,22.65
2017-05-17T01:56:40.891Z,22.48
2017-05-17T01:57:07.031Z,22.51
2017-05-17T01:57:33.155Z,22.51
2017-05-17T01:57:59.272Z,22.51
2017-05-17T01:58:25.433Z,22.47
2017-05-17T01:58:51.559Z,22.44
2017-05-17T01:59:17.685Z,22.43
2017-05-17T01:59:43.835Z,22.51
2017-05-17T02:00:09.924Z,22.5
2017-05-17T02:00:36.037Z,22.55
2017-05-17T02:01:02.160Z,22.45
2017-05-17T02:01:28.276Z,22.53
2017-05-17T02:01:54.407Z,22.48
2017-05-17T02:02:20.507Z,22.5
2017-05-17T02:02:46.623Z,22.45
2017-05-17T02:03:12.754Z,22.45
2017-05-17T02:03:38.919Z,22.44
2017-05-17T02:04:05.084Z,22.53
2017-05-17T02:04:31.211Z,22.48
2017-05-17T02:04:57.358Z,22.43
2017-05-17T02:05:23.467Z,22.48
2017-05-17T02:05:49.622Z,22.44
2017-05-17T02:06:15.742Z,22.43
2017-05-17T02:06:41.876Z,22.43
2017-05-17T02:07:08.038Z,22.5
2017-05-17T02:07:34.178Z,22.57
2017-05-17T02:08:00.331Z,22.53
2017-05-17T02:08:26.439Z,22.53
2017-05-17T02:08:52.585Z,22.51
2017-05-17T02:09:18.729Z,22.47
2017-05-17T02:09:44.867Z,22.43
2017-05-17T02:10:10.991Z,22.44
2017-05-17T02:10:37.125Z,22.45
2017-05-17T02:11:03.217Z,22.41
2017-05-17T02:11:29.366Z,22.43
2017-05-17T02:11:55.471Z,22.44
2017-05-17T02:12:21.561Z,22.43
2017-05-17T02:12:47.685Z,22.38
2017-05-17T02:13:13.873Z,22.51
2017-05-17T02:13:40.016Z,22.47
2017-05-17T02:14:06.133Z,22.45
2017-05-17T02:14:32.273Z,22.41
2017-05-17T02:14:58.372Z,22.44
2017-05-17T02:15:24.489Z,22.43
2017-05-17T02:15:50.625Z,22.43
2017-05-17T02:16:16.719Z,22.39
2017-05-17T02:16:42.853Z,22.45
2017-05-17T02:17:08.947Z,22.35
2017-05-17T02:17:35.065Z,22.33
2017-05-17T02:18:01.204Z,22.35
2017-05-17T02:18:27.329Z,22.29
2017-05-17T02:18:53.442Z,22.33
2017-05-17T02:19:19.602Z,22.32
2017-05-17T02:19:45.702Z,22.29
2017-05-17T02:20:11.794Z,22.3
2017-05-17T02:20:37.899Z,22.26
2017-05-17T02:21:04.006Z,22.3
2017-05-17T02:21:30.099Z,22.25
2017-05-17T02:21:56.246Z,22.3
2017-05-17T02:22:22.363Z,22.35
2017-05-17T02:22:48.472Z,22.33
2017-05-17T02:23:14.574Z,22.17
2017-05-17T02:23:40.669Z,22.17
2017-05-17T02:24:06.824Z,22.2
2017-05-17T02:24:32.933Z,22.22
2017-05-17T02:24:59.022Z,22.29
2017-05-17T02:25:25.147Z,22.33
2017-05-17T02:25:51.254Z,22.33
2017-05-17T02:26:17.375Z,22.3
2017-05-17T02:26:43.520Z,22.28
2017-05-17T02:27:09.619Z,22.33
2017-05-17T02:27:35.747Z,22.36
2017-05-17T02:28:01.909Z,22.43
2017-05-17T02:28:28.048Z,22.3
2017-05-17T02:28:54.191Z,22.25
2017-05-17T02:29:20.312Z,22.38
2017-05-17T02:29:46.481Z,22.36
2017-05-17T02:30:12.579Z,22.41
2017-05-17T02:30:38.689Z,22.36
2017-05-17T02:31:04.834Z,22.35
2017-05-17T02:31:30.928Z,22.32
2017-05-17T02:31:57.066Z,22.25
2017-05-17T02:32:23.189Z,22.33
2017-05-17T02:32:49.294Z,22.38
2017-05-17T02:33:15.434Z,22.35
2017-05-17T02:33:41.581Z,22.41
2017-05-17T02:34:07.717Z,22.35
2017-05-17T02:34:33.838Z,22.39
2017-05-17T02:34:59.956Z,22.28
2017-05-17T02:35:26.067Z,22.35
2017-05-17T02:35:52.166Z,22.39
2017-05-17T02:36:18.306Z,22.39
2017-05-17T02:36:44.441Z,22.35
2017-05-17T02:37:10.541Z,22.47
2017-05-17T02:37:36.659Z,22.44
2017-05-17T02:38:02.764Z,22.44
2017-05-17T02:38:28.898Z,22.45
2017-05-17T02:38:55.013Z,22.47
2017-05-17T02:39:21.142Z,22.39
2017-05-17T02:39:47.305Z,22.39
2017-05-17T02:40:13.398Z,22.41
2017-05-17T02:40:39.521Z,22.41
2017-05-17T02:41:05.629Z,22.36
2017-05-17T02:41:31.723Z,22.41
2017-05-17T02:41:57.868Z,22.47
2017-05-17T02:42:23.976Z,22.38
2017-05-17T02:42:50.100Z,22.43
2017-05-17T02:43:16.266Z,22.43
2017-05-17T02:43:42.375Z,22.45
2017-05-17T02:44:08.511Z,22.39
2017-05-17T02:44:34.646Z,22.47
2017-05-17T02:45:00.792Z,22.45
2017-05-17T02:45:26.910Z,22.43
2017-05-17T02:45:53.018Z,22.43
2017-05-17T02:46:19.142Z,22.44
2017-05-17T02:46:45.260Z,22.53
2017-05-17T02:47:11.391Z,22.54
2017-05-17T02:47:37.545Z,22.53
2017-05-17T02:48:03.640Z,22.45
2017-05-17T02:48:29.745Z,22.44
2017-05-17T02:48:55.879Z,22.38
2017-05-17T02:49:22.003Z,22.38
2017-05-17T02:49:48.129Z,22.35
2017-05-17T02:50:14.244Z,22.43
2017-05-17T02:50:40.378Z,22.41
2017-05-17T02:51:06.480Z,22.43
2017-05-17T02:51:32.574Z,22.48
2017-05-17T02:51:58.731Z,22.45
2017-05-17T02:52:24.824Z,22.38
2017-05-17T02:52:50.936Z,22.45
2017-05-17T02:53:17.060Z,22.48
2017-05-17T02:53:43.201Z,22.32
2017-05-17T02:54:09.332Z,22.33
2017-05-17T02:54:35.434Z,22.26
2017-05-17T02:55:01.584Z,22.29
2017-05-17T02:55:27.678Z,22.28
2017-05-17T02:55:53.795Z,22.28
2017-05-17T02:56:19.957Z,22.29
2017-05-17T02:56:46.109Z,22.32
2017-05-17T02:57:12.226Z,22.23
2017-05-17T02:57:38.333Z,22.3
2017-05-17T02:58:04.491Z,22.3
2017-05-17T02:58:30.632Z,22.35
2017-05-17T02:58:56.794Z,22.23
2017-05-17T02:59:22.926Z,22.2
2017-05-17T02:59:49.015Z,22.28
2017-05-17T03:00:15.140Z,22.29
2017-05-17T03:00:41.261Z,22.33
2017-05-17T03:01:07.421Z,22.43
2017-05-17T03:01:33.521Z,22.36
2017-05-17T03:01:59.614Z,22.26
2017-05-17T03:02:25.719Z,22.36
2017-05-17T03:02:51.828Z,22.35
2017-05-17T03:03:17.966Z,22.41
2017-05-17T03:03:44.119Z,22.26
2017-05-17T03:04:10.282Z,22.39
2017-05-17T03:04:36.373Z,22.39
2017-05-17T03:05:02.521Z,22.38
2017-05-17T03:05:28.628Z,22.38
2017-05-17T03:05:54.721Z,22.43
2017-05-17T03:06:20.855Z,22.41
2017-05-17T03:06:46.942Z,22.43
2017-05-17T03:07:13.044Z,22.39
2017-05-17T03:07:39.151Z,22.45
2017-05-17T03:08:05.268Z,22.41
2017-05-17T03:08:31.367Z,22.39
2017-05-17T03:08:57.557Z,22.41
2017-05-17T03:09:23.678Z,22.44
2017-05-17T03:09:49.770Z,22.43
2017-05-17T03:10:15.932Z,22.48
2017-05-17T03:10:42.032Z,22.5
2017-05-17T03:11:08.149Z,22.48
2017-05-17T03:11:34.285Z,22.45
2017-05-17T03:12:00.404Z,22.48
2017-05-17T03:12:26.538Z,22.59
2017-05-17T03:12:52.681Z,22.44
2017-05-17T03:13:18.799Z,22.47
2017-05-17T03:13:44.933Z,22.39
2017-05-17T03:14:11.059Z,22.36
2017-05-17T03:14:37.175Z,22.38
2017-05-17T03:15:03.333Z,22.39
2017-05-17T03:15:29.432Z,22.43
2017-05-17T03:15:55.549Z,22.43
2017-05-17T03:16:21.706Z,22.41
2017-05-17T03:16:47.814Z,22.33
2017-05-17T03:17:13.959Z,22.36
2017-05-17T03:17:40.086Z,22.33
2017-05-17T03:18:06.201Z,22.35
2017-05-17T03:18:32.336Z,22.22
2017-05-17T03:18:58.494Z,22.23
2017-05-17T03:19:24.636Z,22.29
2017-05-17T03:19:50.764Z,22.3
2017-05-17T03:20:16.871Z,22.26
2017-05-17T03:20:42.985Z,22.26
2017-05-17T03:21:09.114Z,22.41
2017-05-17T03:21:35.223Z,22.36
2017-05-17T03:22:01.367Z,22.38
2017-05-17T03:22:27.467Z,22.3
2017-05-17T03:22:53.601Z,22.41
2017-05-17T03:23:19.696Z,22.41
2017-05-17T03:23:45.840Z,22.35
2017-05-17T03:24:12.005Z,22.44
2017-05-17T03:24:38.128Z,22.35
2017-05-17T03:25:04.245Z,22.33
2017-05-17T03:25:30.376Z,22.33
2017-05-17T03:25:56.533Z,22.29
2017-05-17T03:26:22.623Z,22.33
2017-05-17T03:26:48.755Z,22.33
2017-05-17T03:27:14.860Z,22.39
2017-05-17T03:27:40.974Z,22.33
2017-05-17T03:28:07.103Z,22.26
2017-05-17T03:28:33.228Z,22.3
2017-05-17T03:28:59.362Z,22.29
2017-05-17T03:29:25.518Z,22.25
2017-05-17T03:29:51.637Z,22.22
2017-05-17T03:30:17.742Z,22.18
2017-05-17T03:30:43.851Z,22.22
2017-05-17T03:31:09.966Z,22.1
2017-05-17T03:31:36.068Z,22.22
2017-05-17T03:32:02.199Z,22.15
2017-05-17T03:32:28.292Z,22.17
2017-05-17T03:32:54.393Z,22.15
2017-05-17T03:33:20.558Z,22.23
2017-05-17T03:33:46.730Z,22.23
2017-05-17T03:34:12.837Z,22.17
2017-05-17T03:34:38.951Z,22.15
2017-05-17T03:35:05.050Z,22.2
2017-05-17T03:35:31.155Z,22.15
2017-05-17T03:35:57.246Z,22.14
2017-05-17T03:36:23.369Z,22.17
2017-05-17T03:36:49.507Z,22.15
2017-05-17T03:37:15.626Z,22.18
2017-05-17T03:37:41.718Z,22.1
2017-05-17T03:38:07.832Z,22.1
2017-05-17T03:38:33.982Z,22.06
2017-05-17T03:39:00.099Z,22.15
2017-05-17T03:39:26.232Z,22.15
2017-05-17T03:39:52.353Z,22.1
2017-05-17T03:40:18.461Z,22.04
2017-05-17T03:40:44.583Z,22.06
2017-05-17T03:41:10.696Z,22.14
2017-05-17T03:41:36.835Z,22.13
2017-05-17T03:42:02.936Z,22.07
2017-05-17T03:42:29.029Z,22.08
2017-05-17T03:42:55.187Z,22.04
2017-05-17T03:43:21.317Z,22.13
2017-05-17T03:43:47.408Z,22.02
2017-05-17T03:44:13.513Z,22.13
2017-05-17T03:44:39.698Z,22.15
2017-05-17T03:45:05.861Z,22.13
2017-05-17T03:45:31.901Z,22.13
2017-05-17T03:45:57.992Z,22.08
2017-05-17T03:46:24.149Z,22.17
2017-05-17T03:46:50.306Z,22.11
2017-05-17T03:47:16.422Z,22.15
2017-05-17T03:47:42.527Z,22.13
2017-05-17T03:48:08.661Z,22.17
2017-05-17T03:48:34.824Z,22.18
2017-05-17T03:49:00.950Z,22.14
2017-05-17T03:49:27.084Z,22.17
2017-05-17T03:49:53.201Z,22.22
2017-05-17T03:50:19.344Z,22.14
2017-05-17T03:50:45.419Z,22.17
2017-05-17T03:51:11.525Z,22.22
2017-05-17T03:51:37.658Z,22.25
2017-05-17T03:52:03.774Z,22.17
2017-05-17T03:52:29.874Z,22.15
2017-05-17T03:52:56.061Z,22.13
2017-05-17T03:53:22.202Z,22.22
2017-05-17T03:53:48.326Z,22.18
2017-05-17T03:54:14.562Z,22.23
2017-05-17T03:54:40.706Z,22.15
2017-05-17T03:55:06.820Z,22.25
2017-05-17T03:55:32.932Z,22.22
2017-05-17T03:55:59.057Z,22.15
2017-05-17T03:56:25.186Z,22.17
2017-05-17T03:56:51.280Z,22.14
2017-05-17T03:57:17.425Z,22.17
2017-05-17T03:57:43.531Z,22.2
2017-05-17T03:58:09.677Z,22.22
2017-05-17T03:58:35.819Z,22.18
2017-05-17T03:59:01.953Z,21.99
2017-05-17T03:59:28.074Z,22.06
2017-05-17T03:59:54.181Z,22.08
2017-05-17T04:00:20.300Z,21.99
2017-05-17T04:00:46.401Z,21.93
2017-05-17T04:01:12.543Z,21.95
2017-05-17T04:01:38.699Z,21.83
2017-05-17T04:02:04.818Z,21.79
2017-05-17T04:02:30.928Z,21.66
2017-05-17T04:02:57.080Z,21.76
2017-05-17T04:03:23.220Z,21.67
2017-05-17T04:03:49.381Z,21.67
2017-05-17T04:04:15.537Z,21.79
2017-05-17T04:04:41.656Z,21.7
2017-05-17T04:05:07.808Z,21.79
2017-05-17T04:05:33.944Z,21.75
2017-05-17T04:06:00.057Z,21.77
2017-05-17T04:06:26.160Z,21.79
2017-05-17T04:06:52.294Z,21.8
2017-05-17T04:07:18.386Z,21.93
2017-05-17T04:07:44.508Z,21.85
2017-05-17T04:08:10.643Z,21.92
2017-05-17T04:08:36.738Z,22
2017-05-17T04:09:02.891Z,21.91
2017-05-17T04:09:29.081Z,21.89
2017-05-17T04:09:55.182Z,21.93
2017-05-17T04:10:21.297Z,21.93
2017-05-17T04:10:47.409Z,21.91
2017-05-17T04:11:13.507Z,21.93
2017-05-17T04:11:39.624Z,21.92
2017-05-17T04:12:05.775Z,21.93
2017-05-17T04:12:31.910Z,22.06
2017-05-17T04:12:58.057Z,21.96
2017-05-17T04:13:24.209Z,21.96
2017-05-17T04:13:50.324Z,22
2017-05-17T04:14:16.431Z,21.98
2017-05-17T04:14:42.528Z,21.93
2017-05-17T04:15:08.620Z,21.93
2017-05-17T04:15:34.726Z,21.92
2017-05-17T04:16:00.862Z,21.89
2017-05-17T04:16:26.953Z,21.79
2017-05-17T04:16:53.050Z,21.83
2017-05-17T04:17:19.156Z,21.8
2017-05-17T04:17:45.278Z,21.8
2017-05-17T04:18:11.401Z,21.82
2017-05-17T04:18:37.549Z,21.73
2017-05-17T04:19:03.683Z,21.75
2017-05-17T04:19:29.876Z,21.66
2017-05-17T04:19:55.965Z,21.75
2017-05-17T04:20:22.068Z,21.7
2017-05-17T04:20:48.202Z,21.7
2017-05-17T04:21:14.293Z,21.79
2017-05-17T04:21:40.393Z,21.75
2017-05-17T04:22:06.556Z,21.77
2017-05-17T04:22:32.653Z,21.79
2017-05-17T04:22:58.768Z,21.7
2017-05-17T04:23:24.903Z,21.73
2017-05-17T04:23:51.056Z,21.73
2017-05-17T04:24:17.189Z,21.76
2017-05-17T04:24:43.310Z,21.73
2017-05-17T04:25:09.454Z,21.7
2017-05-17T04:25:35.564Z,21.62
2017-05-17T04:26:01.683Z,21.6
2017-05-17T04:26:27.799Z,21.58
2017-05-17T04:26:53.937Z,21.66
2017-05-17T04:27:20.064Z,21.64
2017-05-17T04:27:46.151Z,21.69
2017-05-17T04:28:12.334Z,21.73
2017-05-17T04:28:38.490Z,21.69
2017-05-17T04:29:04.653Z,21.69
2017-05-17T04:29:30.785Z,21.7
2017-05-17T04:29:56.904Z,21.62
2017-05-17T04:30:23.017Z,21.69
2017-05-17T04:30:49.115Z,21.79
2017-05-17T04:31:15.256Z,21.75
2017-05-17T04:31:41.392Z,21.76
2017-05-17T04:32:07.490Z,21.66
2017-05-17T04:32:33.659Z,21.72
2017-05-17T04:32:59.837Z,21.67
2017-05-17T04:33:25.984Z,21.7
2017-05-17T04:33:52.124Z,21.73
2017-05-17T04:34:18.251Z,21.67
2017-05-17T04:34:44.386Z,21.54
2017-05-17T04:35:10.479Z,21.54
2017-05-17T04:35:36.583Z,21.55
2017-05-17T04:36:02.701Z,21.61
2017-05-17T04:36:28.806Z,21.58
2017-05-17T04:36:54.969Z,21.57
2017-05-17T04:37:21.082Z,21.64
2017-05-17T04:37:47.213Z,21.57
2017-05-17T04:38:13.379Z,21.62
2017-05-17T04:38:39.522Z,21.57
2017-05-17T04:39:05.645Z,21.57
2017-05-17T04:39:31.777Z,21.45
2017-05-17T04:39:57.896Z,21.46
2017-05-17T04:40:24.012Z,21.48
2017-05-17T04:40:50.141Z,21.46
2017-05-17T04:41:16.292Z,21.55
2017-05-17T04:41:42.421Z,21.6
2017-05-17T04:42:08.564Z,21.66
2017-05-17T04:42:34.685Z,21.62
2017-05-17T04:43:00.791Z,21.6
2017-05-17T04:43:26.886Z,21.6
2017-05-17T04:43:53.026Z,21.58
2017-05-17T04:44:19.164Z,21.52
2017-05-17T04:44:45.289Z,21.55
2017-05-17T04:45:11.381Z,21.54
2017-05-17T04:45:37.488Z,21.48
2017-05-17T04:46:03.589Z,21.36
2017-05-17T04:46:29.715Z,21.45
2017-05-17T04:46:55.839Z,21.43
2017-05-17T04:47:21.955Z,21.4
2017-05-17T04:47:48.067Z,21.39
2017-05-17T04:48:14.244Z,21.43
2017-05-17T04:48:40.359Z,21.32
2017-05-17T04:49:06.468Z,21.39
2017-05-17T04:49:32.627Z,21.4
2017-05-17T04:49:58.718Z,21.21
2017-05-17T04:50:24.823Z,21.22
2017-05-17T04:50:50.957Z,21.32
2017-05-17T04:51:17.045Z,21.2
2017-05-17T04:51:43.145Z,21.29
2017-05-17T04:52:09.251Z,21.37
2017-05-17T04:52:35.344Z,21.36
2017-05-17T04:53:01.469Z,21.4
2017-05-17T04:53:27.633Z,21.37
2017-05-17T04:53:53.727Z,21.45
2017-05-17T04:54:19.842Z,21.42
2017-05-17T04:54:46.008Z,21.43
2017-05-17T04:55:12.132Z,21.4
2017-05-17T04:55:38.224Z,21.36
2017-05-17T04:56:04.333Z,21.35
2017-05-17T04:56:30.433Z,21.39
2017-05-17T04:56:56.574Z,21.39
2017-05-17T04:57:22.704Z,21.4
2017-05-17T04:57:48.839Z,21.29
2017-05-17T04:58:14.978Z,21.32
2017-05-17T04:58:41.102Z,21.36
2017-05-17T04:59:07.244Z,21.32
2017-05-17T04:59:33.405Z,21.3
2017-05-17T04:59:59.585Z,21.29
2017-05-17T05:00:25.728Z,21.2
2017-05-17T05:00:51.831Z,21.22
2017-05-17T05:01:17.939Z,21.25
2017-05-17T05:01:44.099Z,21.24
2017-05-17T05:02:10.200Z,21.2
2017-05-17T05:02:36.334Z,21.24
2017-05-17T05:03:02.478Z,21.3
2017-05-17T05:03:28.610Z,21.24
2017-05-17T05:03:54.701Z,21.27
2017-05-17T05:04:20.833Z,21.17
2017-05-17T05:04:46.967Z,21.21
2017-05-17T05:05:13.082Z,21.21
2017-05-17T05:05:39.187Z,21.11
2017-05-17T05:06:05.294Z,21.11
2017-05-17T05:06:31.385Z,21.12
2017-05-17T05:06:57.483Z,21.07
2017-05-17T05:07:23.590Z,21.12
2017-05-17T05:07:49.708Z,21.11
2017-05-17T05:08:15.800Z,21.07
2017-05-17T05:08:41.928Z,21.12
2017-05-17T05:09:08.029Z,21.11
2017-05-17T05:09:34.164Z,21.11
2017-05-17T05:10:00.255Z,21.12
2017-05-17T05:10:26.353Z,21.06
2017-05-17T05:10:52.461Z,20.99
2017-05-17T05:11:18.581Z,21.11
2017-05-17T05:11:44.699Z,21.14
2017-05-17T05:12:10.838Z,21.12
2017-05-17T05:12:36.963Z,21.09
2017-05-17T05:13:03.054Z,21.14
2017-05-17T05:13:29.214Z,21.09
2017-05-17T05:13:55.346Z,21.06
2017-05-17T05:14:21.471Z,21.03
2017-05-17T05:14:47.592Z,21.18
2017-05-17T05:15:13.681Z,21.17
2017-05-17T05:15:39.816Z,21.12
2017-05-17T05:16:05.915Z,21.09
2017-05-17T05:16:32.008Z,21.11
2017-05-17T05:16:58.116Z,21.17
2017-05-17T05:17:24.215Z,21.15
2017-05-17T05:17:50.378Z,21.09
2017-05-17T05:18:16.482Z,21.09
2017-05-17T05:18:42.617Z,21.24
2017-05-17T05:19:08.733Z,21.09
2017-05-17T05:19:34.898Z,21.24
2017-05-17T05:20:01.017Z,21.24
2017-05-17T05:20:27.127Z,21.29
2017-05-17T05:20:53.227Z,21.22
2017-05-17T05:21:19.346Z,21.3
2017-05-17T05:21:45.448Z,21.35
2017-05-17T05:22:11.601Z,21.37
2017-05-17T05:22:37.718Z,21.37
2017-05-17T05:23:03.842Z,21.35
2017-05-17T05:23:29.978Z,21.39
2017-05-17T05:23:56.097Z,21.4
2017-05-17T05:24:22.219Z,21.4
2017-05-17T05:24:48.353Z,21.42
2017-05-17T05:25:14.504Z,21.42
2017-05-17T05:25:40.643Z,21.35
2017-05-17T05:26:06.724Z,21.36
2017-05-17T05:26:32.874Z,21.37
2017-05-17T05:26:59.107Z,21.39
2017-05-17T05:27:25.181Z,21.45
2017-05-17T05:27:51.305Z,21.48
2017-05-17T05:28:17.453Z,21.45
2017-05-17T05:28:43.593Z,21.5
2017-05-17T05:29:09.709Z,21.55
2017-05-17T05:29:35.829Z,21.54
2017-05-17T05:30:01.921Z,21.62
2017-05-17T05:30:28.038Z,21.58
2017-05-17T05:30:54.284Z,21.58
2017-05-17T05:31:20.410Z,21.5
2017-05-17T05:31:46.545Z,21.6
2017-05-17T05:32:12.666Z,21.54
2017-05-17T05:32:38.757Z,21.55
2017-05-17T05:33:04.951Z,21.55
2017-05-17T05:33:31.125Z,21.61
2017-05-17T05:33:57.210Z,21.61
2017-05-17T05:34:23.594Z,21.66
2017-05-17T05:34:49.734Z,21.6
2017-05-17T05:35:15.878Z,21.62
2017-05-17T05:35:42.003Z,21.69
2017-05-17T05:36:08.108Z,21.58
2017-05-17T05:36:34.245Z,21.66
2017-05-17T05:37:00.425Z,21.6
2017-05-17T05:37:26.561Z,21.55
2017-05-17T05:37:52.706Z,21.55